createdAt,value
2022-08-07T00:01:43.798Z,5.95
2022-08-07T00:04:16.428Z,8.05
2022-08-07T00:07:01.413Z,8.27
2022-08-07T00:09:35.805Z,6.28
2022-08-07T00:12:05.462Z,5.72
2022-08-07T00:14:34.218Z,7.95
2022-08-07T00:17:06.618Z,9.98
2022-08-07T00:20:01.379Z,4.57
2022-08-07T00:22:35.212Z,6.57
2022-08-07T00:25:07.032Z,6.90
2022-08-07T00:27:52.357Z,7.93
2022-08-07T00:30:27.571Z,9.95
2022-08-07T00:32:58.777Z,5.53
2022-08-07T00:35:29.901Z,8.65
2022-08-07T00:38:02.339Z,6.05
2022-08-07T00:40:39.859Z,6.63
2022-08-07T00:43:59.520Z,4.70
2022-08-07T00:46:04.596Z,6.47
2022-08-07T00:48:37.082Z,5.78
2022-08-07T00:51:12.034Z,7.80
2022-08-07T00:53:50.678Z,5.70
2022-08-07T00:56:30.272Z,6.93
2022-08-07T00:59:03.592Z,7.07
2022-08-07T01:01:41.239Z,6.45
2022-08-07T01:04:24.582Z,8.10
2022-08-07T01:06:56.172Z,5.60
2022-08-07T01:10:03.903Z,5.18
2022-08-07T01:12:28.843Z,2.93
2022-08-07T01:15:01.715Z,5.88
2022-08-07T01:17:35.708Z,6.25
2022-08-07T01:20:17.271Z,7.78
2022-08-07T01:23:00.472Z,3.80
2022-08-07T01:25:55.573Z,6.50
2022-08-07T01:28:26.349Z,5.03
2022-08-07T01:31:00.137Z,4.88
2022-08-07T01:33:56.325Z,5.80
2022-08-07T01:36:33.886Z,5.85
2022-08-07T01:39:18.388Z,5.10
2022-08-07T01:42:07.481Z,3.47
2022-08-07T01:44:47.926Z,3.75
2022-08-07T01:48:19.503Z,4.80
2022-08-07T01:50:14.605Z,4.07
2022-08-07T01:52:49.738Z,2.80
2022-08-07T01:55:28.106Z,2.08
2022-08-07T01:58:06.337Z,5.30
2022-08-07T02:01:09.496Z,3.63
2022-08-07T02:03:48.856Z,3.95
2022-08-07T02:06:31.615Z,2.50
2022-08-07T02:09:08.917Z,5.20
2022-08-07T02:12:03.341Z,4.32
2022-08-07T02:14:40.799Z,5.43
2022-08-07T02:17:27.583Z,2.05
2022-08-07T02:20:04.819Z,3.67
2022-08-07T02:22:41.408Z,2.42
2022-08-07T02:25:17.462Z,2.55
2022-08-07T02:28:00.136Z,1.77
2022-08-07T02:30:32.179Z,2.92
2022-08-07T02:33:09.158Z,3.80
2022-08-07T02:36:29.081Z,1.83
2022-08-07T02:38:39.125Z,2.00
2022-08-07T02:41:21.814Z,4.03
2022-08-07T02:43:55.320Z,2.17
2022-08-07T02:46:32.487Z,1.50
2022-08-07T02:49:03.306Z,2.00
2022-08-07T02:51:49.980Z,2.42
2022-08-07T02:54:27.847Z,4.45
2022-08-07T02:57:03.633Z,3.17
2022-08-07T02:59:38.391Z,3.77
2022-08-07T03:02:11.581Z,2.70
2022-08-07T03:04:42.963Z,3.35
2022-08-07T03:07:18.056Z,5.47
2022-08-07T03:09:52.551Z,3.55
2022-08-07T03:12:31.057Z,0.57
2022-08-07T03:15:10.568Z,5.43
2022-08-07T03:17:53.471Z,1.85
2022-08-07T03:20:29.032Z,3.17
2022-08-07T03:23:04.492Z,1.77
2022-08-07T03:25:58.286Z,5.03
2022-08-07T03:28:37.486Z,2.17
2022-08-07T03:31:24.378Z,2.08
2022-08-07T03:34:01.105Z,3.25
2022-08-07T03:36:34.897Z,6.05
2022-08-07T03:39:11.518Z,1.70
2022-08-07T03:41:47.769Z,3.25
2022-08-07T03:44:21.789Z,1.77
2022-08-07T03:47:10.886Z,1.83
2022-08-07T03:49:41.762Z,1.73
2022-08-07T03:52:22.556Z,4.93
2022-08-07T03:54:57.351Z,3.05
2022-08-07T03:59:07.419Z,2.38
2022-08-07T04:00:33.856Z,1.73
2022-08-07T04:03:10.079Z,3.67
2022-08-07T04:05:45.702Z,4.13
2022-08-07T04:08:21.350Z,3.15
2022-08-07T04:12:25.415Z,3.80
2022-08-07T04:14:10.705Z,3.80
2022-08-07T04:16:38.410Z,3.63
2022-08-07T04:19:15.222Z,9.47
2022-08-07T04:22:05.369Z,8.85
2022-08-07T04:24:42.034Z,5.10
2022-08-07T04:27:20.390Z,3.63
2022-08-07T04:30:02.203Z,5.35
2022-08-07T04:32:58.417Z,5.27
2022-08-07T04:35:35.447Z,2.83
2022-08-07T04:38:13.130Z,3.80
2022-08-07T04:40:52.806Z,13.48
2022-08-07T04:44:12.082Z,11.25
2022-08-07T04:46:59.557Z,11.70
2022-08-07T04:49:42.121Z,3.95
2022-08-07T04:52:32.164Z,2.78
2022-08-07T04:55:15.203Z,2.95
2022-08-07T04:58:34.952Z,2.33
2022-08-07T05:01:20.631Z,2.60
2022-08-07T05:04:08.228Z,2.45
2022-08-07T05:06:53.626Z,1.40
2022-08-07T05:09:45.359Z,1.80
2022-08-07T05:12:27.141Z,6.10
2022-08-07T05:15:23.495Z,10.10
2022-08-07T05:18:08.567Z,3.55
2022-08-07T05:20:44.925Z,9.95
2022-08-07T05:23:20.460Z,3.63
2022-08-07T05:26:11.551Z,28.25
2022-08-07T05:28:50.118Z,48.43
2022-08-07T05:31:34.515Z,24.42
2022-08-07T05:34:10.941Z,3.58
2022-08-07T05:36:49.081Z,7.80
2022-08-07T05:40:05.003Z,43.25
2022-08-07T05:42:36.980Z,7.40
2022-08-07T05:45:26.288Z,6.55
2022-08-07T05:48:07.655Z,7.47
2022-08-07T05:50:44.546Z,1.20
2022-08-07T05:54:12.054Z,1.88
2022-08-07T05:56:09.527Z,1.50
2022-08-07T05:58:49.352Z,4.18
2022-08-07T06:01:27.563Z,1.25
2022-08-07T06:04:09.992Z,1.45
2022-08-07T06:06:46.111Z,1.70
2022-08-07T06:09:18.179Z,0.70
2022-08-07T06:11:50.737Z,2.92
2022-08-07T06:14:28.895Z,0.77
2022-08-07T06:17:08.919Z,1.08
2022-08-07T06:19:57.562Z,1.17
2022-08-07T06:22:39.065Z,2.50
2022-08-07T06:25:34.749Z,4.68
2022-08-07T06:28:06.638Z,0.52
2022-08-07T06:30:45.876Z,1.10
2022-08-07T06:33:22.534Z,1.00
2022-08-07T06:36:06.649Z,1.90
2022-08-07T06:38:59.475Z,2.20
2022-08-07T06:42:00.599Z,1.05
2022-08-07T06:45:13.009Z,1.73
2022-08-07T06:47:58.493Z,2.15
2022-08-07T06:50:33.603Z,1.67
2022-08-07T06:54:12.145Z,1.00
2022-08-07T06:56:02.119Z,1.08
2022-08-07T06:58:37.595Z,1.92
2022-08-07T07:01:16.642Z,1.83
2022-08-07T07:03:50.234Z,0.57
2022-08-07T07:06:28.190Z,3.38
2022-08-07T07:09:14.590Z,2.00
2022-08-07T07:12:07.404Z,4.32
2022-08-07T07:14:52.889Z,0.82
2022-08-07T07:17:39.090Z,0.53
2022-08-07T07:20:17.719Z,1.02
2022-08-07T07:24:08.641Z,0.50
2022-08-07T07:26:34.227Z,1.58
2022-08-07T07:28:48.344Z,0.65
2022-08-07T07:31:44.226Z,1.47
2022-08-07T07:34:30.704Z,0.90
2022-08-07T07:37:22.054Z,2.45
2022-08-07T07:40:01.644Z,0.85
2022-08-07T07:42:43.158Z,0.95
2022-08-07T07:45:22.786Z,1.03
2022-08-07T07:48:24.299Z,1.00
2022-08-07T07:51:08.109Z,1.08
2022-08-07T07:53:52.068Z,1.35
2022-08-07T07:56:29.996Z,0.98
2022-08-07T07:59:02.887Z,1.33
2022-08-07T08:02:04.673Z,1.05
2022-08-07T08:04:27.684Z,0.98
2022-08-07T08:07:02.636Z,0.70
2022-08-07T08:09:52.132Z,1.58
2022-08-07T08:12:52.024Z,0.63
2022-08-07T08:15:23.209Z,1.27
2022-08-07T08:17:57.097Z,0.95
2022-08-07T08:20:32.323Z,1.60
2022-08-07T08:23:20.628Z,1.83
2022-08-07T08:26:23.613Z,0.73
2022-08-07T08:28:59.329Z,0.75
2022-08-07T08:31:59.221Z,3.33
2022-08-07T08:34:35.538Z,1.95
2022-08-07T08:37:09.842Z,1.23
2022-08-07T08:39:58.705Z,0.77
2022-08-07T08:42:40.442Z,1.90
2022-08-07T08:45:20.865Z,0.95
2022-08-07T08:48:10.797Z,3.30
2022-08-07T08:50:51.596Z,0.52
2022-08-07T08:53:46.925Z,2.50
2022-08-07T08:56:24.763Z,0.90
2022-08-07T08:59:06.367Z,0.70
2022-08-07T09:01:51.146Z,0.63
2022-08-07T09:04:31.683Z,0.77
2022-08-07T09:07:12.835Z,1.00
2022-08-07T09:10:02.543Z,1.77
2022-08-07T09:12:54.966Z,0.98
2022-08-07T09:16:20.599Z,0.82
2022-08-07T09:19:52.829Z,0.93
2022-08-07T09:24:31.139Z,1.27
2022-08-07T09:25:27.211Z,1.67
2022-08-07T09:29:24.362Z,0.73
2022-08-07T09:31:08.490Z,1.48
2022-08-07T09:34:09.698Z,2.17
2022-08-07T09:36:49.689Z,1.40
2022-08-07T09:39:53.902Z,1.70
2022-08-07T09:42:53.702Z,1.17
2022-08-07T09:47:25.812Z,1.73
2022-08-07T09:50:02.566Z,2.63
2022-08-07T09:52:16.132Z,1.73
2022-08-07T09:54:50.684Z,2.50
2022-08-07T09:57:58.111Z,1.08
2022-08-07T10:00:33.188Z,1.02
2022-08-07T10:04:06.799Z,0.77
2022-08-07T10:07:03.480Z,1.20
2022-08-07T10:10:00.239Z,3.13
2022-08-07T10:14:01.451Z,1.42
2022-08-07T10:16:43.256Z,1.77
2022-08-07T10:19:45.414Z,3.70
2022-08-07T10:22:51.004Z,3.07
2022-08-07T10:25:43.248Z,0.75
2022-08-07T10:28:39.248Z,1.38
2022-08-07T10:31:49.552Z,1.65
2022-08-07T10:34:45.254Z,2.97
2022-08-07T10:38:00.596Z,0.63
2022-08-07T10:40:30.390Z,1.35
2022-08-07T10:43:11.393Z,0.90
2022-08-07T10:45:58.190Z,2.47
2022-08-07T10:48:41.732Z,1.02
2022-08-07T10:51:39.170Z,1.40
2022-08-07T10:54:19.210Z,3.55
2022-08-07T10:57:09.763Z,2.20
2022-08-07T11:00:05.449Z,0.70
2022-08-07T11:02:49.458Z,0.47
2022-08-07T11:05:49.233Z,2.00
2022-08-07T11:08:41.237Z,1.20
2022-08-07T11:11:16.631Z,2.00
2022-08-07T11:14:44.640Z,0.68
2022-08-07T11:17:01.783Z,2.15
2022-08-07T11:19:40.218Z,2.50
2022-08-07T11:22:26.573Z,1.65
2022-08-07T11:25:12.920Z,1.65
2022-08-07T11:28:01.391Z,0.70
2022-08-07T11:30:48.085Z,0.68
2022-08-07T11:33:54.245Z,0.63
2022-08-07T11:36:40.115Z,1.70
2022-08-07T11:39:25.252Z,0.68
2022-08-07T11:42:19.582Z,1.85
2022-08-07T11:45:00.021Z,1.95
2022-08-07T11:47:56.693Z,0.40
2022-08-07T11:50:58.373Z,1.17
2022-08-07T11:54:00.920Z,2.65
2022-08-07T11:56:53.041Z,1.35
2022-08-07T12:00:11.298Z,2.35
2022-08-07T12:03:44.893Z,3.07
2022-08-07T12:06:51.666Z,2.03
2022-08-07T12:09:37.256Z,1.20
2022-08-07T12:12:12.274Z,1.08
2022-08-07T12:14:55.360Z,1.63
2022-08-07T12:17:55.876Z,0.60
2022-08-07T12:20:38.044Z,1.00
2022-08-07T12:24:05.434Z,1.35
2022-08-07T12:26:46.890Z,1.95
2022-08-07T12:29:38.716Z,2.17
2022-08-07T12:32:22.066Z,1.70
2022-08-07T12:34:56.099Z,1.42
2022-08-07T12:37:28.311Z,1.85
2022-08-07T12:40:46.630Z,1.75
2022-08-07T12:44:03.903Z,1.98
2022-08-07T12:46:26.378Z,2.57
2022-08-07T12:49:39.532Z,2.70
2022-08-07T12:52:17.131Z,1.63
2022-08-07T12:55:09.706Z,0.80
2022-08-07T12:58:02.041Z,2.28
2022-08-07T13:00:50.107Z,0.33
2022-08-07T13:03:59.246Z,4.03
2022-08-07T13:07:01.921Z,0.77
2022-08-07T13:10:19.499Z,0.85
2022-08-07T13:13:10.899Z,0.57
2022-08-07T13:15:59.276Z,1.00
2022-08-07T13:18:44.771Z,3.22
2022-08-07T13:21:37.238Z,2.38
2022-08-07T13:24:25.580Z,0.90
2022-08-07T13:27:10.532Z,2.15
2022-08-07T13:29:53.765Z,0.80
2022-08-07T13:32:35.185Z,5.65
2022-08-07T13:35:21.144Z,1.90
2022-08-07T13:38:03.762Z,0.77
2022-08-07T13:40:58.552Z,1.02
2022-08-07T13:43:34.231Z,2.30
2022-08-07T13:46:12.897Z,0.93
2022-08-07T13:48:58.536Z,1.55
2022-08-07T13:52:23.096Z,1.95
2022-08-07T13:54:29.445Z,1.00
2022-08-07T13:57:14.587Z,1.33
2022-08-07T13:59:57.874Z,1.15
2022-08-07T14:02:39.644Z,0.77
2022-08-07T14:05:25.152Z,1.75
2022-08-07T14:08:10.372Z,0.68
2022-08-07T14:10:43.605Z,1.37
2022-08-07T14:13:22.251Z,0.60
2022-08-07T14:16:06.771Z,0.32
2022-08-07T14:18:57.170Z,0.50
2022-08-07T14:22:03.987Z,0.57
2022-08-07T14:24:28.633Z,1.13
2022-08-07T14:27:16.137Z,0.20
2022-08-07T14:30:11.705Z,1.42
2022-08-07T14:32:48.794Z,2.63
2022-08-07T14:35:43.374Z,1.20
2022-08-07T14:38:26.862Z,0.63
2022-08-07T14:41:06.474Z,1.98
2022-08-07T14:43:58.663Z,0.68
2022-08-07T14:46:51.930Z,0.73
2022-08-07T14:49:56.837Z,0.47
2022-08-07T14:52:34.021Z,1.77
2022-08-07T14:55:05.326Z,0.93
2022-08-07T14:57:58.350Z,1.35
2022-08-07T15:00:42.041Z,2.03
2022-08-07T15:03:18.935Z,1.30
2022-08-07T15:05:54.661Z,2.30
2022-08-07T15:08:50.069Z,2.83
2022-08-07T15:13:05.886Z,1.55
2022-08-07T15:14:30.391Z,0.95
2022-08-07T15:17:05.515Z,2.10
2022-08-07T15:20:30.599Z,0.77
2022-08-07T15:22:55.047Z,2.00
2022-08-07T15:28:36.192Z,0.98
2022-08-07T15:31:57.691Z,0.60
2022-08-07T15:34:12.433Z,1.03
2022-08-07T15:37:02.676Z,1.00
2022-08-07T15:39:56.619Z,2.10
2022-08-07T15:42:56.059Z,0.88
2022-08-07T15:45:55.509Z,1.27
2022-08-07T15:48:33.556Z,2.50
2022-08-07T15:51:12.010Z,0.95
2022-08-07T15:53:53.002Z,1.50
2022-08-07T15:56:35.343Z,2.95
2022-08-07T15:59:16.625Z,2.28
2022-08-07T16:02:01.651Z,0.93
2022-08-07T16:04:37.842Z,1.52
2022-08-07T16:08:30.285Z,2.00
2022-08-07T16:10:17.069Z,2.72
2022-08-07T16:13:59.300Z,1.90
2022-08-07T16:16:48.850Z,1.77
2022-08-07T16:20:34.097Z,1.73
2022-08-07T16:23:53.809Z,2.38
2022-08-07T16:26:59.697Z,1.98
2022-08-07T16:30:10.182Z,4.03
2022-08-07T16:32:54.585Z,2.60
2022-08-07T16:35:51.972Z,1.73
2022-08-07T16:39:01.153Z,2.22
2022-08-07T16:41:56.165Z,1.17
2022-08-07T16:45:14.750Z,4.38
2022-08-07T16:49:10.479Z,2.17
2022-08-07T16:52:06.521Z,1.20
2022-08-07T16:55:08.374Z,2.65
2022-08-07T16:58:08.023Z,1.20
2022-08-07T17:00:43.655Z,1.63
2022-08-07T17:03:57.973Z,1.73
2022-08-07T17:06:42.535Z,1.10
2022-08-07T17:10:06.347Z,3.47
2022-08-07T17:12:44.729Z,4.72
2022-08-07T17:15:22.745Z,2.30
2022-08-07T17:18:25.960Z,2.20
2022-08-07T17:20:56.625Z,2.50
2022-08-07T17:23:44.494Z,3.75
2022-08-07T17:26:30.609Z,1.73
2022-08-07T17:30:12.608Z,2.47
2022-08-07T17:32:30.047Z,2.33
2022-08-07T17:35:49.963Z,2.63
2022-08-07T17:38:34.436Z,1.95
2022-08-07T17:42:01.211Z,2.22
2022-08-07T17:44:14.219Z,1.80
2022-08-07T17:47:00.220Z,1.73
2022-08-07T17:49:44.431Z,3.80
2022-08-07T17:52:30.635Z,1.85
2022-08-07T17:55:12.557Z,4.88
2022-08-07T17:58:02.503Z,3.15
2022-08-07T18:00:48.770Z,2.20
2022-08-07T18:04:04.289Z,2.28
2022-08-07T18:06:38.537Z,1.25
2022-08-07T18:09:15.977Z,4.15
2022-08-07T18:12:16.092Z,2.78
2022-08-07T18:14:51.533Z,3.00
2022-08-07T18:18:46.372Z,1.60
2022-08-07T18:21:03.490Z,5.70
2022-08-07T18:23:50.577Z,4.20
2022-08-07T18:26:58.382Z,2.80
2022-08-07T18:30:06.592Z,10.40
2022-08-07T18:33:10.511Z,6.32
2022-08-07T18:36:03.490Z,3.80
2022-08-07T18:40:09.006Z,3.55
2022-08-07T18:42:13.546Z,3.72
2022-08-07T18:45:44.993Z,4.60
2022-08-07T18:48:01.392Z,4.13
2022-08-07T18:50:55.906Z,4.95
2022-08-07T18:53:55.897Z,4.78
2022-08-07T18:57:25.786Z,3.17
2022-08-07T19:00:04.497Z,2.57
2022-08-07T19:03:00.605Z,4.50
2022-08-07T19:06:02.619Z,3.63
2022-08-07T19:08:39.377Z,5.00
2022-08-07T19:11:35.946Z,3.95
2022-08-07T19:14:17.021Z,4.10
2022-08-07T19:17:04.751Z,2.97
2022-08-07T19:19:54.747Z,5.30
2022-08-07T19:22:34.251Z,3.63
2022-08-07T19:26:24.612Z,4.75
2022-08-07T19:28:58.376Z,3.30
2022-08-07T19:31:43.721Z,3.05
2022-08-07T19:34:04.093Z,4.25
2022-08-07T19:36:44.513Z,4.40
2022-08-07T19:39:56.100Z,4.97
2022-08-07T19:42:40.505Z,3.73
2022-08-07T19:46:05.056Z,4.40
2022-08-07T19:48:18.672Z,4.20
2022-08-07T19:50:57.558Z,6.43
2022-08-07T19:54:35.001Z,7.18
2022-08-07T19:56:58.629Z,5.30
2022-08-07T19:59:18.816Z,3.90
2022-08-07T20:01:56.128Z,5.15
2022-08-07T20:04:37.551Z,5.95
2022-08-07T20:07:14.072Z,6.75
2022-08-07T20:10:35.527Z,6.47
2022-08-07T20:12:53.313Z,8.02
2022-08-07T20:15:32.979Z,9.32
2022-08-07T20:18:18.073Z,6.00
2022-08-07T20:20:51.924Z,7.28
2022-08-07T20:23:40.919Z,6.17
2022-08-07T20:26:15.298Z,7.85
2022-08-07T20:29:10.732Z,7.10
2022-08-07T20:31:54.388Z,6.53
2022-08-07T20:34:49.459Z,7.38
2022-08-07T20:37:25.536Z,7.73
2022-08-07T20:40:02.248Z,14.15
2022-08-07T20:42:39.173Z,5.80
2022-08-07T20:45:33.538Z,8.40
2022-08-07T20:48:28.455Z,8.32
2022-08-07T20:51:03.353Z,8.90
2022-08-07T20:54:03.491Z,8.23
2022-08-07T20:56:34.917Z,10.65
2022-08-07T21:00:04.484Z,6.40
2022-08-07T21:01:58.525Z,11.35
2022-08-07T21:04:32.859Z,7.13
2022-08-07T21:07:03.925Z,9.35
2022-08-07T21:09:53.082Z,7.57
2022-08-07T21:12:31.720Z,9.48
2022-08-07T21:15:06.687Z,10.23
2022-08-07T21:18:17.259Z,9.77
2022-08-07T21:20:33.498Z,8.63
2022-08-07T21:23:09.587Z,6.45
2022-08-07T21:25:58.543Z,9.00
2022-08-07T21:28:50.125Z,5.90
2022-08-07T21:32:41.583Z,9.13
2022-08-07T21:34:46.106Z,10.18
2022-08-07T21:37:26.684Z,8.48
2022-08-07T21:40:26.454Z,8.27
2022-08-07T21:43:06.136Z,6.32
2022-08-07T21:46:07.959Z,6.90
2022-08-07T21:48:48.124Z,6.20
2022-08-07T21:51:50.960Z,6.00
2022-08-07T21:54:35.809Z,8.55
2022-08-07T21:57:31.175Z,6.80
2022-08-07T22:00:23.246Z,6.37
2022-08-07T22:03:07.735Z,9.70
2022-08-07T22:05:49.888Z,7.75
2022-08-07T22:08:24.747Z,6.70
2022-08-07T22:11:01.364Z,7.30
2022-08-07T22:13:52.593Z,8.43
2022-08-07T22:16:42.654Z,6.43
2022-08-07T22:19:29.752Z,5.72
2022-08-07T22:22:17.718Z,7.38
2022-08-07T22:25:07.550Z,6.57
2022-08-07T22:28:08.002Z,7.30
2022-08-07T22:30:54.073Z,7.97
2022-08-07T22:33:53.073Z,8.02
2022-08-07T22:36:39.889Z,6.15
2022-08-07T22:39:23.536Z,10.10
2022-08-07T22:42:19.080Z,6.07
2022-08-07T22:44:57.976Z,4.57
2022-08-07T22:48:13.978Z,6.95
2022-08-07T22:51:36.441Z,7.22
2022-08-07T22:54:31.773Z,9.27
2022-08-07T22:57:19.310Z,6.87
2022-08-07T23:00:12.449Z,5.88
2022-08-07T23:03:03.579Z,5.40
2022-08-07T23:06:15.736Z,8.38
2022-08-07T23:10:04.644Z,7.25
2022-08-07T23:12:34.602Z,5.43
2022-08-07T23:16:06.913Z,6.15
2022-08-07T23:18:34.636Z,6.22
2022-08-07T23:21:30.302Z,4.82
2022-08-07T23:24:45.681Z,4.43
2022-08-07T23:28:22.372Z,4.80
2022-08-07T23:31:07.177Z,5.03
2022-08-07T23:34:20.916Z,5.05
2022-08-07T23:37:22.792Z,3.75
2022-08-07T23:40:15.027Z,4.30
2022-08-07T23:43:16.651Z,6.10
2022-08-07T23:46:03.795Z,3.58
2022-08-07T23:49:24.127Z,2.67
2022-08-07T23:53:11.965Z,2.38
2022-08-07T23:55:53.419Z,2.38
2022-08-07T23:58:31.826Z,2.13
